createdAt,value
2024-01-10T00:02:01.353Z,100793.66
2024-01-10T00:04:28.220Z,100785.69
2024-01-10T00:06:55.077Z,100785.16
2024-01-10T00:09:21.915Z,100782.28
2024-01-10T00:11:48.794Z,100785.31
2024-01-10T00:14:15.755Z,100781.28
2024-01-10T00:16:42.693Z,100779.59
2024-01-10T00:19:09.562Z,100775.97
2024-01-10T00:21:39.279Z,100787.47
2024-01-10T00:24:06.290Z,100784.38
2024-01-10T00:26:33.219Z,100779.72
2024-01-10T00:29:05.156Z,100784.53
2024-01-10T00:31:33.025Z,100779.03
2024-01-10T00:34:00.000Z,100779.84
2024-01-10T00:36:27.472Z,100774.16
2024-01-10T00:38:54.350Z,100781.38
2024-01-10T00:41:21.404Z,100779.72
2024-01-10T00:43:48.496Z,100775.94
2024-01-10T00:46:15.624Z,100777.56
2024-01-10T00:48:42.592Z,100779.50
2024-01-10T00:51:10.518Z,100770.31
2024-01-10T00:53:37.572Z,100774.00
2024-01-10T00:56:04.989Z,100775.94
2024-01-10T00:58:35.041Z,100770.97
2024-01-10T01:01:02.063Z,100767.75
2024-01-10T01:03:29.134Z,100769.69
2024-01-10T01:05:56.181Z,100770.81
2024-01-10T01:08:23.311Z,100774.59
2024-01-10T01:10:50.290Z,100769.75
2024-01-10T01:13:17.173Z,100779.09
2024-01-10T01:15:45.044Z,100783.88
2024-01-10T01:18:14.492Z,100782.53
2024-01-10T01:20:41.723Z,100778.34
2024-01-10T01:23:08.679Z,100774.91
2024-01-10T01:25:35.772Z,100777.69
2024-01-10T01:28:02.843Z,100782.38
2024-01-10T01:30:29.889Z,100781.38
2024-01-10T01:32:56.989Z,100767.19
2024-01-10T01:35:25.083Z,100765.50
2024-01-10T01:37:53.051Z,100762.09
2024-01-10T01:40:20.524Z,100761.78
2024-01-10T01:42:47.701Z,100758.53
2024-01-10T01:45:14.982Z,100766.00
2024-01-10T01:47:42.560Z,100763.13
2024-01-10T01:50:10.315Z,100755.75
2024-01-10T01:52:37.930Z,100752.94
2024-01-10T01:55:06.936Z,100755.34
2024-01-10T01:57:34.483Z,100760.81
2024-01-10T02:00:01.612Z,100759.25
2024-01-10T02:02:30.026Z,100762.13
2024-01-10T02:04:57.006Z,100747.53
2024-01-10T02:07:24.066Z,100749.63
2024-01-10T02:09:50.989Z,100757.03
2024-01-10T02:12:18.169Z,100745.75
2024-01-10T02:14:45.248Z,100747.00
2024-01-10T02:17:12.161Z,100741.50
2024-01-10T02:19:39.110Z,100750.69
2024-01-10T02:22:05.950Z,100748.47
2024-01-10T02:24:32.847Z,100745.66
2024-01-10T02:26:59.924Z,100738.81
2024-01-10T02:29:27.396Z,100740.75
2024-01-10T02:31:54.323Z,100736.59
2024-01-10T02:34:21.446Z,100734.56
2024-01-10T02:36:48.320Z,100733.88
2024-01-10T02:39:15.171Z,100741.75
2024-01-10T02:41:42.004Z,100737.44
2024-01-10T02:44:08.908Z,100734.16
2024-01-10T02:46:35.814Z,100726.44
2024-01-10T02:49:02.782Z,100727.78
2024-01-10T02:51:31.627Z,100720.84
2024-01-10T02:53:58.433Z,100718.47
2024-01-10T02:56:25.302Z,100725.59
2024-01-10T02:58:52.185Z,100725.44
2024-01-10T03:01:19.177Z,100722.38
2024-01-10T03:03:46.211Z,100722.19
2024-01-10T03:06:13.173Z,100720.75
2024-01-10T03:08:40.391Z,100722.69
2024-01-10T03:11:07.615Z,100721.69
2024-01-10T03:13:34.488Z,100733.03
2024-01-10T03:16:01.350Z,100731.66
2024-01-10T03:18:28.303Z,100731.97
2024-01-10T03:20:55.447Z,100731.50
2024-01-10T03:23:23.381Z,100730.41
2024-01-10T03:25:50.859Z,100725.72
2024-01-10T03:28:18.926Z,100726.72
2024-01-10T03:30:46.415Z,100720.81
2024-01-10T03:33:13.459Z,100709.81
2024-01-10T03:35:41.054Z,100720.81
2024-01-10T03:38:08.048Z,100702.72
2024-01-10T03:40:35.859Z,100713.03
2024-01-10T03:43:02.675Z,100708.84
2024-01-10T03:45:29.955Z,100706.94
2024-01-10T03:47:57.016Z,100714.28
2024-01-10T03:50:23.981Z,100711.84
2024-01-10T03:52:51.500Z,100703.19
2024-01-10T03:55:18.460Z,100701.69
2024-01-10T03:57:45.446Z,100707.94
2024-01-10T04:00:15.999Z,100707.19
2024-01-10T04:02:43.056Z,100698.47
2024-01-10T04:05:14.662Z,100695.34
2024-01-10T04:07:45.410Z,100704.22
2024-01-10T04:10:15.737Z,100696.00
2024-01-10T04:12:43.563Z,100697.00
2024-01-10T04:15:10.734Z,100698.81
2024-01-10T04:17:37.765Z,100691.53
2024-01-10T04:20:05.559Z,100696.00
2024-01-10T04:22:33.343Z,100696.75
2024-01-10T04:25:01.515Z,100697.09
2024-01-10T04:27:30.924Z,100690.50
2024-01-10T04:29:57.815Z,100689.13
2024-01-10T04:32:24.923Z,100693.03
2024-01-10T04:34:51.968Z,100690.19
2024-01-10T04:37:19.719Z,100687.44
2024-01-10T04:39:46.880Z,100695.00
2024-01-10T04:42:14.411Z,100682.31
2024-01-10T04:44:41.222Z,100686.78
2024-01-10T04:47:09.186Z,100685.94
2024-01-10T04:49:36.225Z,100675.28
2024-01-10T04:52:03.859Z,100688.63
2024-01-10T04:54:30.802Z,100692.28
2024-01-10T04:56:57.662Z,100684.66
2024-01-10T04:59:24.512Z,100688.81
2024-01-10T05:01:51.496Z,100683.56
2024-01-10T05:04:18.634Z,100689.31
2024-01-10T05:06:45.429Z,100695.03
2024-01-10T05:09:13.228Z,100700.41
2024-01-10T05:11:42.221Z,100692.84
2024-01-10T05:14:09.797Z,100694.22
2024-01-10T05:16:36.888Z,100697.94
2024-01-10T05:19:07.227Z,100698.19
2024-01-10T05:21:35.036Z,100700.56
2024-01-10T05:24:01.881Z,100693.56
2024-01-10T05:26:28.737Z,100700.28
2024-01-10T05:28:55.566Z,100699.22
2024-01-10T05:31:22.469Z,100703.69
2024-01-10T05:33:49.415Z,100701.84
2024-01-10T05:36:16.356Z,100700.75
2024-01-10T05:38:43.267Z,100707.88
2024-01-10T05:41:10.937Z,100708.19
2024-01-10T05:43:38.275Z,100704.78
2024-01-10T05:46:07.758Z,100709.31
2024-01-10T05:48:34.651Z,100705.16
2024-01-10T05:51:02.362Z,100704.69
2024-01-10T05:53:29.956Z,100713.72
2024-01-10T05:55:57.078Z,100709.63
2024-01-10T05:58:24.383Z,100705.22
2024-01-10T06:00:51.230Z,100701.69
2024-01-10T06:03:18.273Z,100710.66
2024-01-10T06:05:45.309Z,100701.69
2024-01-10T06:08:12.533Z,100700.00
2024-01-10T06:10:40.068Z,100706.59
2024-01-10T06:13:06.873Z,100703.38
2024-01-10T06:15:33.945Z,100713.03
2024-01-10T06:18:00.882Z,100714.38
2024-01-10T06:20:28.128Z,100712.25
2024-01-10T06:22:55.627Z,100710.28
2024-01-10T06:25:22.494Z,100711.16
2024-01-10T06:27:49.397Z,100717.25
2024-01-10T06:30:16.380Z,100713.72
2024-01-10T06:32:43.231Z,100718.97
2024-01-10T06:35:13.146Z,100716.75
2024-01-10T06:37:40.378Z,100712.00
2024-01-10T06:40:07.932Z,100714.72
2024-01-10T06:42:34.819Z,100715.38
2024-01-10T06:45:01.695Z,100716.75
2024-01-10T06:47:28.836Z,100716.75
2024-01-10T06:49:58.397Z,100718.59
2024-01-10T06:52:25.254Z,100716.22
2024-01-10T06:54:52.029Z,100711.31
2024-01-10T06:57:19.272Z,100715.22
2024-01-10T06:59:46.183Z,100714.19
2024-01-10T07:02:13.172Z,100718.53
2024-01-10T07:04:40.179Z,100719.97
2024-01-10T07:07:07.238Z,100719.13
2024-01-10T07:09:34.008Z,100729.44
2024-01-10T07:12:01.099Z,100719.63
2024-01-10T07:14:28.061Z,100729.94
2024-01-10T07:16:58.488Z,100723.63
2024-01-10T07:19:25.566Z,100731.50
2024-01-10T07:21:52.497Z,100739.78
2024-01-10T07:24:19.387Z,100737.91
2024-01-10T07:26:46.288Z,100737.91
2024-01-10T07:29:13.189Z,100734.88
2024-01-10T07:31:40.561Z,100739.19
2024-01-10T07:34:07.885Z,100738.28
2024-01-10T07:36:37.919Z,100745.09
2024-01-10T07:39:05.109Z,100751.66
2024-01-10T07:41:32.134Z,100757.19
2024-01-10T07:43:59.262Z,100753.50
2024-01-10T07:46:28.544Z,100751.25
2024-01-10T07:48:55.526Z,100756.56
2024-01-10T07:51:23.275Z,100753.72
2024-01-10T07:53:50.117Z,100748.78
2024-01-10T07:56:17.387Z,100760.97
2024-01-10T07:58:44.283Z,100751.84
2024-01-10T08:01:12.680Z,100761.59
2024-01-10T08:03:40.956Z,100761.50
2024-01-10T08:06:15.260Z,100763.19
2024-01-10T08:08:47.758Z,100767.94
2024-01-10T08:11:14.542Z,100766.16
2024-01-10T08:13:41.679Z,100765.16
2024-01-10T08:16:10.192Z,100768.97
2024-01-10T08:18:37.196Z,100766.06
2024-01-10T08:21:05.741Z,100763.78
2024-01-10T08:23:32.644Z,100764.03
2024-01-10T08:25:59.482Z,100772.09
2024-01-10T08:28:27.717Z,100762.00
2024-01-10T08:31:02.724Z,100772.56
2024-01-10T08:33:32.170Z,100773.13
2024-01-10T08:36:00.566Z,100767.88
2024-01-10T08:38:27.694Z,100771.78
2024-01-10T08:40:54.792Z,100775.78
2024-01-10T08:43:21.686Z,100773.34
2024-01-10T08:45:48.523Z,100772.06
2024-01-10T08:48:15.637Z,100772.53
2024-01-10T08:50:42.943Z,100768.53
2024-01-10T08:53:11.608Z,100769.75
2024-01-10T08:55:38.726Z,100769.09
2024-01-10T08:58:08.921Z,100774.56
2024-01-10T09:00:35.941Z,100772.69
2024-01-10T09:03:03.840Z,100777.63
2024-01-10T09:05:30.703Z,100778.91
2024-01-10T09:07:58.329Z,100777.56
2024-01-10T09:10:30.045Z,100773.56
2024-01-10T09:12:59.722Z,100773.56
2024-01-10T09:15:26.638Z,100771.66
2024-01-10T09:17:53.673Z,100778.50
2024-01-10T09:20:22.289Z,100774.34
2024-01-10T09:22:50.603Z,100775.53
2024-01-10T09:25:17.577Z,100786.31
2024-01-10T09:27:46.296Z,100783.84
2024-01-10T09:30:13.756Z,100779.66
2024-01-10T09:32:40.871Z,100786.00
2024-01-10T09:35:08.480Z,100791.94
2024-01-10T09:37:35.336Z,100778.41
2024-01-10T09:40:02.309Z,100783.38
2024-01-10T09:42:34.433Z,100784.97
2024-01-10T09:45:01.949Z,100788.56
2024-01-10T09:47:29.186Z,100783.50
2024-01-10T09:49:56.724Z,100791.50
2024-01-10T09:52:29.187Z,100783.00
2024-01-10T09:54:58.089Z,100788.88
2024-01-10T09:57:26.865Z,100786.31
2024-01-10T09:59:55.857Z,100786.66
2024-01-10T10:02:26.086Z,100791.09
2024-01-10T10:05:04.003Z,100783.47
2024-01-10T10:07:31.286Z,100780.63
2024-01-10T10:09:58.254Z,100778.41
2024-01-10T10:12:43.401Z,100783.28
2024-01-10T10:15:15.108Z,100780.22
2024-01-10T10:17:48.778Z,100777.34
2024-01-10T10:20:16.586Z,100767.19
2024-01-10T10:23:00.825Z,100779.31
2024-01-10T10:25:39.524Z,100780.63
2024-01-10T10:28:07.351Z,100777.09
2024-01-10T10:30:35.853Z,100776.03
2024-01-10T10:33:03.979Z,100781.19
2024-01-10T10:35:38.044Z,100779.44
2024-01-10T10:38:10.828Z,100782.75
2024-01-10T10:40:37.887Z,100773.19
2024-01-10T10:43:06.315Z,100771.06
2024-01-10T10:45:34.946Z,100775.75
2024-01-10T10:48:03.577Z,100773.50
2024-01-10T10:50:38.124Z,100765.44
2024-01-10T10:53:05.778Z,100766.09
2024-01-10T10:55:35.651Z,100761.13
2024-01-10T10:58:11.329Z,100766.59
2024-01-10T11:00:41.003Z,100759.97
2024-01-10T11:03:15.429Z,100750.84
2024-01-10T11:05:45.730Z,100752.59
2024-01-10T11:08:17.497Z,100755.50
2024-01-10T11:10:48.098Z,100752.59
2024-01-10T11:13:37.443Z,100750.78
2024-01-10T11:16:22.602Z,100753.06
2024-01-10T11:19:11.946Z,100746.91
2024-01-10T11:21:48.745Z,100743.41
2024-01-10T11:24:19.504Z,100742.78
2024-01-10T11:26:47.310Z,100733.69
2024-01-10T11:29:14.567Z,100737.81
2024-01-10T11:31:41.544Z,100737.59
2024-01-10T11:34:10.219Z,100733.56
2024-01-10T11:36:37.087Z,100735.50
2024-01-10T11:39:08.022Z,100734.78
2024-01-10T11:41:41.674Z,100730.59
2024-01-10T11:44:22.594Z,100731.19
2024-01-10T11:46:52.281Z,100741.09
2024-01-10T11:49:20.850Z,100729.44
2024-01-10T11:51:53.486Z,100728.59
2024-01-10T11:54:43.287Z,100728.06
2024-01-10T11:57:33.652Z,100725.34
2024-01-10T12:00:02.196Z,100729.50
2024-01-10T12:02:31.390Z,100730.34
2024-01-10T12:04:58.936Z,100738.47
2024-01-10T12:07:27.288Z,100736.50
2024-01-10T12:09:54.550Z,100727.09
2024-01-10T12:12:21.778Z,100723.91
2024-01-10T12:14:48.775Z,100722.94
2024-01-10T12:17:15.969Z,100722.88
2024-01-10T12:19:47.424Z,100724.56
2024-01-10T12:22:15.067Z,100726.38
2024-01-10T12:24:52.781Z,100721.63
2024-01-10T12:27:22.697Z,100719.69
2024-01-10T12:29:52.567Z,100712.41
2024-01-10T12:32:22.394Z,100709.69
2024-01-10T12:34:52.419Z,100714.47
2024-01-10T12:37:22.024Z,100713.88
2024-01-10T12:39:48.981Z,100710.78
2024-01-10T12:42:17.133Z,100716.72
2024-01-10T12:44:45.729Z,100704.75
2024-01-10T12:47:23.193Z,100704.03
2024-01-10T12:49:50.391Z,100706.19
2024-01-10T12:52:19.605Z,100703.94
2024-01-10T12:54:48.460Z,100710.59
2024-01-10T12:57:15.233Z,100709.44
2024-01-10T12:59:42.137Z,100713.09
2024-01-10T13:02:08.989Z,100705.22
2024-01-10T13:04:37.146Z,100706.78
2024-01-10T13:07:04.179Z,100703.34
2024-01-10T13:09:31.025Z,100701.66
2024-01-10T13:11:58.083Z,100707.94
2024-01-10T13:14:24.933Z,100708.41
2024-01-10T13:16:59.303Z,100711.31
2024-01-10T13:19:30.361Z,100704.53
2024-01-10T13:22:00.458Z,100701.31
2024-01-10T13:24:31.087Z,100699.38
2024-01-10T13:26:57.951Z,100702.84
2024-01-10T13:29:27.030Z,100699.53
2024-01-10T13:31:53.904Z,100695.06
2024-01-10T13:34:21.378Z,100694.78
2024-01-10T13:36:49.020Z,100693.09
2024-01-10T13:39:16.890Z,100691.69
2024-01-10T13:41:43.892Z,100695.75
2024-01-10T13:44:11.194Z,100698.66
2024-01-10T13:46:38.072Z,100693.06
2024-01-10T13:49:04.915Z,100695.38
2024-01-10T13:51:32.262Z,100702.75
2024-01-10T13:54:02.107Z,100699.63
2024-01-10T13:56:29.617Z,100701.13
2024-01-10T13:58:58.952Z,100703.66
2024-01-10T14:01:25.937Z,100701.72
2024-01-10T14:03:53.103Z,100699.41
2024-01-10T14:06:20.164Z,100695.44
2024-01-10T14:08:50.129Z,100699.69
2024-01-10T14:11:17.256Z,100703.34
2024-01-10T14:13:44.041Z,100712.53
2024-01-10T14:16:12.368Z,100707.56
2024-01-10T14:18:39.206Z,100719.56
2024-01-10T14:21:09.273Z,100716.50
2024-01-10T14:23:39.344Z,100713.78
2024-01-10T14:26:06.972Z,100726.59
2024-01-10T14:28:34.241Z,100717.28
2024-01-10T14:31:09.914Z,100717.84
2024-01-10T14:33:46.388Z,100718.13
2024-01-10T14:36:13.516Z,100722.19
2024-01-10T14:38:41.099Z,100725.53
2024-01-10T14:41:10.879Z,100730.59
2024-01-10T14:43:39.028Z,100721.28
2024-01-10T14:46:06.939Z,100732.16
2024-01-10T14:48:34.628Z,100736.28
2024-01-10T14:51:04.820Z,100736.38
2024-01-10T14:53:32.588Z,100735.41
2024-01-10T14:55:59.501Z,100738.28
2024-01-10T14:58:26.379Z,100734.41
2024-01-10T15:00:53.305Z,100747.16
2024-01-10T15:03:26.430Z,100741.41
2024-01-10T15:05:55.158Z,100742.59
2024-01-10T15:08:22.241Z,100742.31
2024-01-10T15:10:49.223Z,100743.63
2024-01-10T15:13:19.345Z,100743.50
2024-01-10T15:15:46.362Z,100736.50
2024-01-10T15:18:13.263Z,100732.28
2024-01-10T15:20:40.302Z,100737.59
2024-01-10T15:23:07.496Z,100734.88
2024-01-10T15:25:34.940Z,100742.53
2024-01-10T15:28:04.842Z,100744.81
2024-01-10T15:30:41.292Z,100740.09
2024-01-10T15:33:14.113Z,100744.97
2024-01-10T15:35:40.982Z,100741.59
2024-01-10T15:38:07.781Z,100742.50
2024-01-10T15:40:35.332Z,100742.28
2024-01-10T15:43:03.810Z,100741.78
2024-01-10T15:45:33.150Z,100740.09
2024-01-10T15:48:00.227Z,100740.44
2024-01-10T15:50:27.218Z,100744.88
2024-01-10T15:52:54.285Z,100739.75
2024-01-10T15:55:21.256Z,100741.75
2024-01-10T15:57:48.144Z,100738.81
2024-01-10T16:00:16.056Z,100747.50
2024-01-10T16:02:43.518Z,100741.81
2024-01-10T16:05:10.916Z,100742.41
2024-01-10T16:07:37.879Z,100749.91
2024-01-10T16:10:04.914Z,100754.69
2024-01-10T16:12:32.277Z,100748.38
2024-01-10T16:14:59.141Z,100755.78
2024-01-10T16:17:29.170Z,100761.28
2024-01-10T16:19:56.225Z,100763.19
2024-01-10T16:22:23.034Z,100770.38
2024-01-10T16:24:50.115Z,100768.16
2024-01-10T16:27:19.293Z,100762.97
2024-01-10T16:29:46.165Z,100766.16
2024-01-10T16:32:13.134Z,100763.84
2024-01-10T16:34:40.046Z,100763.84
2024-01-10T16:37:07.825Z,100764.47
2024-01-10T16:39:34.660Z,100775.88
2024-01-10T16:42:01.636Z,100766.56
2024-01-10T16:44:28.516Z,100771.00
2024-01-10T16:46:57.475Z,100764.47
2024-01-10T16:49:25.077Z,100762.88
2024-01-10T16:51:52.594Z,100760.03
2024-01-10T16:54:19.568Z,100765.84
2024-01-10T16:56:46.490Z,100775.44
2024-01-10T16:59:14.144Z,100772.50
2024-01-10T17:01:41.055Z,100770.97
2024-01-10T17:04:08.888Z,100768.13
2024-01-10T17:06:35.921Z,100770.97
2024-01-10T17:09:03.300Z,100770.34
2024-01-10T17:11:30.292Z,100769.28
2024-01-10T17:13:57.277Z,100783.44
2024-01-10T17:16:24.110Z,100773.50
2024-01-10T17:18:51.897Z,100783.00
2024-01-10T17:21:18.951Z,100780.69
2024-01-10T17:23:49.467Z,100793.56
2024-01-10T17:26:16.701Z,100793.78
2024-01-10T17:28:43.752Z,100794.41
2024-01-10T17:31:12.101Z,100789.53
2024-01-10T17:33:39.277Z,100796.44
2024-01-10T17:36:06.903Z,100799.81
2024-01-10T17:38:34.033Z,100801.84
2024-01-10T17:41:01.183Z,100804.22
2024-01-10T17:43:28.268Z,100799.72
2024-01-10T17:45:56.003Z,100803.69
2024-01-10T17:48:23.293Z,100800.38
2024-01-10T17:50:50.384Z,100798.59
2024-01-10T17:53:17.876Z,100803.50
2024-01-10T17:55:48.728Z,100799.16
2024-01-10T17:58:15.938Z,100791.81
2024-01-10T18:00:45.459Z,100802.44
2024-01-10T18:03:13.182Z,100803.56
2024-01-10T18:05:45.701Z,100798.72
2024-01-10T18:08:12.916Z,100799.13
2024-01-10T18:10:41.949Z,100794.84
2024-01-10T18:13:08.823Z,100804.28
2024-01-10T18:15:36.171Z,100808.03
2024-01-10T18:18:03.204Z,100815.59
2024-01-10T18:20:30.287Z,100810.88
2024-01-10T18:22:57.172Z,100815.03
2024-01-10T18:25:25.402Z,100820.09
2024-01-10T18:27:52.311Z,100813.53
2024-01-10T18:30:22.567Z,100813.31
2024-01-10T18:32:52.997Z,100805.81
2024-01-10T18:35:22.654Z,100815.44
2024-01-10T18:37:49.995Z,100816.75
2024-01-10T18:40:17.112Z,100800.34
2024-01-10T18:42:44.138Z,100807.69
2024-01-10T18:45:11.108Z,100813.72
2024-01-10T18:47:38.414Z,100814.66
2024-01-10T18:50:06.351Z,100823.88
2024-01-10T18:52:33.256Z,100829.34
2024-01-10T18:55:00.322Z,100826.69
2024-01-10T18:57:27.813Z,100826.31
2024-01-10T18:59:55.078Z,100831.59
2024-01-10T19:02:22.990Z,100832.03
2024-01-10T19:04:50.870Z,100827.22
2024-01-10T19:07:17.735Z,100832.88
2024-01-10T19:09:45.092Z,100828.19
2024-01-10T19:12:11.981Z,100826.84
2024-01-10T19:14:39.175Z,100828.56
2024-01-10T19:17:06.385Z,100825.56
2024-01-10T19:19:38.014Z,100828.38
2024-01-10T19:22:07.822Z,100818.59
2024-01-10T19:24:35.039Z,100821.41
2024-01-10T19:27:02.222Z,100827.13
2024-01-10T19:29:29.475Z,100827.19
2024-01-10T19:31:56.733Z,100833.03
2024-01-10T19:34:24.444Z,100821.94
2024-01-10T19:36:52.205Z,100834.75
2024-01-10T19:39:19.452Z,100831.00
2024-01-10T19:41:47.070Z,100837.97
2024-01-10T19:44:14.339Z,100830.31
2024-01-10T19:46:42.603Z,100836.09
2024-01-10T19:49:09.579Z,100835.84
2024-01-10T19:51:36.602Z,100842.97
2024-01-10T19:54:03.843Z,100839.19
2024-01-10T19:56:33.201Z,100832.13
2024-01-10T19:59:01.275Z,100841.81
2024-01-10T20:01:28.253Z,100838.72
2024-01-10T20:03:55.553Z,100831.28
2024-01-10T20:06:22.680Z,100833.66
2024-01-10T20:08:49.929Z,100838.66
2024-01-10T20:11:17.067Z,100835.28
2024-01-10T20:13:44.925Z,100840.63
2024-01-10T20:16:12.074Z,100838.16
2024-01-10T20:18:39.256Z,100847.41
2024-01-10T20:21:09.262Z,100847.31
2024-01-10T20:23:36.244Z,100835.69
2024-01-10T20:26:03.229Z,100830.81
2024-01-10T20:28:30.203Z,100840.91
2024-01-10T20:30:57.681Z,100838.47
2024-01-10T20:33:24.706Z,100837.88
2024-01-10T20:35:52.393Z,100834.47
2024-01-10T20:38:19.472Z,100837.47
2024-01-10T20:40:46.481Z,100840.50
2024-01-10T20:43:13.410Z,100839.91
2024-01-10T20:45:40.309Z,100843.38
2024-01-10T20:48:10.503Z,100843.66
2024-01-10T20:50:40.732Z,100843.50
2024-01-10T20:53:07.702Z,100837.38
2024-01-10T20:55:34.834Z,100846.03
2024-01-10T20:58:01.869Z,100840.34
2024-01-10T21:00:28.786Z,100836.09
2024-01-10T21:02:55.986Z,100832.28
2024-01-10T21:05:23.033Z,100834.06
2024-01-10T21:07:51.462Z,100834.56
2024-01-10T21:10:19.578Z,100836.38
2024-01-10T21:12:46.868Z,100844.66
2024-01-10T21:15:13.843Z,100845.41
2024-01-10T21:17:40.913Z,100844.69
2024-01-10T21:20:08.817Z,100842.22
2024-01-10T21:22:35.783Z,100841.69
2024-01-10T21:25:02.679Z,100839.22
2024-01-10T21:27:29.680Z,100845.09
2024-01-10T21:29:56.619Z,100845.19
2024-01-10T21:32:23.670Z,100837.63
2024-01-10T21:34:50.830Z,100838.97
2024-01-10T21:37:19.212Z,100845.34
2024-01-10T21:39:46.404Z,100841.88
2024-01-10T21:42:13.233Z,100845.06
2024-01-10T21:44:40.253Z,100836.16
2024-01-10T21:47:07.913Z,100838.81
2024-01-10T21:49:35.184Z,100843.53
2024-01-10T21:52:02.183Z,100843.69
2024-01-10T21:54:29.738Z,100840.06
2024-01-10T21:56:56.585Z,100837.78
2024-01-10T21:59:23.634Z,100836.59
2024-01-10T22:01:50.739Z,100837.34
2024-01-10T22:04:17.846Z,100830.31
2024-01-10T22:06:45.436Z,100837.19
2024-01-10T22:09:12.418Z,100836.88
2024-01-10T22:11:39.432Z,100833.09
2024-01-10T22:14:06.374Z,100837.59
2024-01-10T22:16:33.496Z,100835.28
2024-01-10T22:19:00.508Z,100836.19
2024-01-10T22:21:28.231Z,100845.00
2024-01-10T22:23:55.066Z,100847.22
2024-01-10T22:26:22.762Z,100855.84
2024-01-10T22:28:49.718Z,100855.09
2024-01-10T22:31:16.714Z,100863.88
2024-01-10T22:33:44.919Z,100852.63
2024-01-10T22:36:11.909Z,100860.59
2024-01-10T22:38:38.827Z,100862.00
2024-01-10T22:41:05.729Z,100863.22
2024-01-10T22:43:36.020Z,100857.56
2024-01-10T22:46:03.809Z,100858.94
2024-01-10T22:48:31.849Z,100862.50
2024-01-10T22:51:00.449Z,100860.81
2024-01-10T22:53:27.682Z,100863.63
2024-01-10T22:55:54.884Z,100862.28
2024-01-10T22:58:23.385Z,100856.63
2024-01-10T23:00:53.089Z,100853.94
2024-01-10T23:03:20.874Z,100858.50
2024-01-10T23:05:48.054Z,100855.09
2024-01-10T23:08:15.153Z,100854.09
2024-01-10T23:10:42.108Z,100859.66
2024-01-10T23:13:09.171Z,100855.91
2024-01-10T23:15:36.201Z,100852.34
2024-01-10T23:18:03.626Z,100855.19
2024-01-10T23:20:30.797Z,100859.59
2024-01-10T23:22:57.701Z,100860.63
2024-01-10T23:25:24.726Z,100860.09
2024-01-10T23:27:51.834Z,100869.50
2024-01-10T23:30:20.101Z,100862.63
2024-01-10T23:32:48.111Z,100866.41
2024-01-10T23:35:15.444Z,100861.88
2024-01-10T23:37:42.373Z,100864.50
2024-01-10T23:40:09.975Z,100869.22
2024-01-10T23:42:37.027Z,100875.69
2024-01-10T23:45:04.849Z,100870.59
2024-01-10T23:47:31.821Z,100865.91
2024-01-10T23:49:59.072Z,100872.59
2024-01-10T23:52:25.973Z,100877.75
2024-01-10T23:54:52.829Z,100882.16
2024-01-10T23:57:19.808Z,100880.00
2024-01-10T23:59:46.689Z,100871.66
